WEATHER DATA

YESTERDAY
Time Temp. Dewp. Hum. Wind dir Wind speed Wind gust Bar. 1h Prec. 24h Prec.
00:06 4.4 0.5 76 0 0.3 0.8 1029.8 0.0000 0.0000
00:16 4.1 0.4 77 351 0.3 1.4 1029.7 0.0000 0.0000
00:25 4 0.5 78 318 0.3 1.1 1029.8 0.0000 0.0000
00:36 3.8 0.3 78 336 0.3 1.1 1029.7 0.0000 0.0000
00:46 3.6 0.3 79 336 0.3 1.1 1029.6 0.0000 0.0000
00:56 3.5 0.2 79 14 0.8 1.4 1029.6 0.0000 0.0000
01:06 3.4 0.3 80 336 0.3 1.4 1029.6 0.0000 0.0000
01:16 3.3 0.2 80 326 0.3 1.4 1029.5 0.0000 0.0000
01:26 3.3 0.4 81 270 0.3 1.1 1029.5 0.0000 0.0000
01:36 3.2 0.3 81 347 0.3 1.1 1029.4 0.0000 0.0000
01:47 3.1 0.2 81 90 0.8 1.9 1029.6 0.0000 0.0000
01:57 3 0.1 81 143 0.3 1.1 1029.3 0.0000 0.0000
02:06 2.9 0.1 82 305 1.1 1.9 1029.3 0.0000 0.0000
02:16 2.9 0.1 82 312 1.4 2.5 1029.4 0.0000 0.0000
02:27 2.8 0 82 315 0.8 1.4 1029.3 0.0000 0.0000
02:37 2.8 0 82 338 0.8 1.4 1029.4 0.0000 0.0000
02:47 2.6 -0.1 82 308 0.8 1.9 1029.4 0.0000 0.0000
02:57 2.5 -0.1 83 330 0.3 1.1 1029.3 0.0000 0.0000
03:07 2.4 -0.2 83 135 0.3 1.1 1029.3 0.0000 0.0000
03:17 2.4 -0.2 83 270 0.3 1.1 1029.2 0.0000 0.0000
03:27 2.3 -0.3 83 307 1.1 1.9 1029.3 0.0000 0.0000
03:37 2.3 -0.3 83 325 0.8 1.9 1029.3 0.0000 0.0000
03:47 2.2 -0.3 83 330 0.8 1.4 1029.1 0.0000 0.0000
03:57 2.1 -0.3 84 309 0.3 1.4 1029.3 0.0000 0.0000
04:08 2 -0.4 84 8 0.3 1.4 1029.3 0.0000 0.0000
04:18 2 -0.4 84 347 0.3 1.1 1029.3 0.0000 0.0000
04:27 2 -0.4 84 336 0.3 0.8 1029.2 0.0000 0.0000
04:37 2 -0.4 84 317 0.8 1.4 1029.3 0.0000 0.0000
04:48 2 -0.4 84 323 0.3 1.4 1029.2 0.0000 0.0000
04:58 2 -0.4 84 315 0.3 1.9 1029.2 0.0000 0.0000
05:07 2 -0.2 85 336 0.3 1.1 1029.1 0.0000 0.0000
05:18 1.9 -0.3 85 318 0.8 1.9 1029.1 0.0000 0.0000
05:28 1.9 -0.3 85 326 0.8 1.9 1029 0.0000 0.0000
05:38 1.9 -0.3 85 333 0.3 0.8 1029.2 0.0000 0.0000
05:48 1.9 -0.3 85 318 0.3 1.4 1029.2 0.0000 0.0000
05:58 1.8 -0.4 85 270 0.3 1.1 1029.2 0.0000 0.0000
06:08 1.7 -0.5 85 347 0.8 1.9 1029.1 0.0000 0.0000
06:18 1.7 -0.5 85 325 0.3 1.1 1029.3 0.0000 0.0000
06:29 1.7 -0.5 85 329 1.1 1.9 1029.5 0.0000 0.0000
06:39 2 -0.1 86 90 0.8 2.2 1029.4 0.0000 0.0000
06:48 2 -0.1 86 120 0.8 1.4 1029.3 0.0000 0.0000
06:58 2.1 -0.1 85 105 0.8 1.9 1029.4 0.0000 0.0000
07:09 2.2 0.1 86 150 0.3 1.1 1029.3 0.0000 0.0000
07:19 2.4 0.3 86 315 0.8 1.9 1029.4 0.0000 0.0000
07:28 2.9 1 87 320 1.1 2.2 1029.2 0.0000 0.0000
07:39 3.4 1.4 87 319 0.8 2.5 1029.3 0.0000 0.0000
07:49 3.8 1.8 87 304 0.8 2.2 1029.3 0.0000 0.0000
07:59 4.3 2.3 87 298 1.1 2.2 1029.1 0.0000 0.0000
08:09 4.8 2.8 87 288 1.1 3.1 1029.1 0.0000 0.0000
08:19 5.3 3.3 87 303 0.8 3.1 1029.2 0.0000 0.0000
08:29 5.7 3.5 86 315 1.1 2.5 1029.2 0.0000 0.0000
08:39 6.1 3.6 84 300 1.1 3.1 1029.3 0.0000 0.0000
08:50 6.5 3.8 83 309 1.4 3.1 1029.2 0.0000 0.0000
08:59 6.8 3.9 82 112 1.1 3.1 1029.1 0.0000 0.0000
09:09 7.4 4.5 82 135 0.8 2.2 1028.9 0.0000 0.0000
09:19 8.2 5.1 81 36 1.1 2.5 1028.9 0.0000 0.0000
09:30 8.9 5.6 80 90 0.8 2.2 1028.8 0.0000 0.0000
09:40 9.7 5.9 77 22 0.8 2.5 1028.8 0.0000 0.0000
09:49 10.1 5.7 74 304 1.4 3.3 1028.7 0.0000 0.0000
10:00 10.1 4.9 70 330 1.4 3.6 1028.8 0.0000 0.0000
10:10 10.1 4.7 69 328 1.9 3.6 1028.7 0.0000 0.0000
10:20 10.1 4.3 67 332 1.9 3.6 1028.7 0.0000 0.0000
10:29 10.1 4.3 67 296 1.1 3.1 1028.4 0.0000 0.0000
10:40 10.3 4.4 67 320 2.2 3.6 1028.4 0.0000 0.0000
10:50 10.5 4.6 67 116 1.1 2.5 1028.1 0.0000 0.0000
11:00 10.7 4.4 65 90 1.9 3.1 1028.2 0.0000 0.0000
11:16 11.2 4.9 65 276 1.9 6.1 1027.9 0.0000 0.0000
11:27 11.3 5 65 270 1.4 3.6 1027.7 0.0000 0.0000
11:37 11.6 5 64 115 1.4 3.3 1027.6 0.0000 0.0000
11:47 11.9 5.3 64 103 1.1 3.1 1027.4 0.0000 0.0000
11:57 12 5.2 63 270 1.1 3.1 1027.4 0.0000 0.0000
12:06 12.2 5.1 62 282 2.2 6.4 1027.2 0.0000 0.0000
12:16 12.2 5.1 62 198 1.4 4.2 1026.9 0.0000 0.0000
12:27 12.4 5.1 61 283 2.2 5.6 1027.1 0.0000 0.0000
12:37 12.4 4.6 59 315 2.2 5.6 1026.9 0.0000 0.0000
12:47 12.4 4.6 59 283 2.2 5.3 1026.8 0.0000 0.0000
12:56 12.5 4.7 59 313 2.2 5.3 1026.7 0.0000 0.0000
13:07 12.6 4.6 58 335 2.2 5.6 1026.7 0.0000 0.0000
13:17 12.7 4.7 58 311 2.5 7.8 1026.5 0.0000 0.0000
13:27 12.8 4.5 57 332 3.1 5.6 1026.6 0.0000 0.0000
13:37 12.8 4.8 58 304 2.2 8.3 1026.4 0.0000 0.0000
13:47 12.8 4.8 58 286 3.1 6.7 1026.3 0.0000 0.0000
13:57 12.9 4.8 58 295 2.2 5.6 1026.2 0.0000 0.0000
14:07 13 4.9 58 307 2.5 6.1 1026.2 0.0000 0.0000
14:18 13 4.9 58 286 2.2 4.4 1026 0.0000 0.0000
14:27 12.9 4.8 58 289 3.1 7.2 1026
14:33 12.9 4.8 58 294 3.6 6.7 1025.9 0.0000 0.0000
14:43 12.9 4.8 58 308 3.1 6.4 1025.9 0.0000 0.0000
14:54 12.9 4.8 58 316 3.3 7.2 1025.7 0.0000 0.0000
15:04 12.7 4.7 58 302 2.2 5 1025.7 0.0000 0.0000
15:13 12.7 4.7 58 293 3.1 6.7 1025.3 0.0000 0.0000
15:23 12.7 4.4 57 319 3.1 7.5 1025.3 0.0000 0.0000
15:34 12.7 4.7 58 315 3.3 7.8 1025.1 0.0000 0.0000
15:44 12.7 4.7 58 322 3.6 8.6 1024.8 0.0000 0.0000
15:54 12.7 4.9 59 303 3.3 8.6 1024.9 0.0000 0.0000
16:04 12.9 4.8 58 302 3.6 11.7 1024.7 0.0000 0.0000
16:15 12.9 4.6 57 315 3.6 7.5 1024.7 0.0000 0.0000
16:24 12.8 4.5 57 308 3.3 6.4 1024.6 0.0000 0.0000
16:34 12.8 4.5 57 309 2.5 9.4 1024.6 0.0000 0.0000
16:44 13 4.9 58 305 3.3 10 1024.6 0.0000 0.0000
16:54 13 4.7 57 303 2.2 6.1 1024.6 0.0000 0.0000
17:04 13 4.7 57 301 2.5 5.6 1024.6 0.0000 0.0000
17:15 13 4.7 57 237 1.9 5 1024.6 0.0000 0.0000
17:25 12.9 4.6 57 296 2.5 8.3 1024.5 0.0000 0.0000
17:34 12.9 4.8 58 259 1.9 6.7 1024.5 0.0000 0.0000
17:44 12.8 4.5 57 302 2.5 7.8 1024.5 0.0000 0.0000
17:55 12.7 4.4 57 307 2.5 6.4 1024.3 0.0000 0.0000
18:05 12.7 4.7 58 315 1.4 5.6 1024.4 0.0000 0.0000
18:14 12.6 4.6 58 279 1.1 3.6 1024.3 0.0000 0.0000
18:25 12.4 4.4 58 297 2.2 6.4 1024.2 0.0000 0.0000
18:35 12.2 4.2 58 299 2.5 7.5 1024.3 0.0000 0.0000
18:38 12.1 4.3 59 305 1.4 5 1024.3 0.0000 0.0000
18:55 12.7 4.9 59 298 2.5 5.3 1024 0.0000 0.0000
19:05 13 5.2 59 323 1.4 4.4 1024.1 0.0000 0.0000
19:15 12.5 4.5 58 279 1.9 5.3 1024.1 0.0000 0.0000
19:25 11.9 4.2 59 305 2.2 4.4 1024 0.0000 0.0000
19:35 11.3 3.8 60 301 1.4 3.3 1024.1 0.0000 0.0000
19:45 10.9 3.7 61 303 2.2 5.6 1024.2 0.0000 0.0000
19:56 10.5 3.5 62 286 2.2 3.6 1024.1 0.0000 0.0000
20:06 10.1 3.4 63 280 1.9 3.3 1024.2 0.0000 0.0000
20:15 9.8 3.3 64 270 1.4 3.3 1024.2 0.0000 0.0000
20:25 9.6 3.4 65 257 0.8 3.1 1024.3 0.0000 0.0000
20:36 9.3 3.1 65 253 1.1 3.3 1024.3 0.0000 0.0000
20:46 9 3 66 270 1.4 4.2 1024.5 0.0000 0.0000
20:56 8.7 2.7 66 261 1.4 3.1 1024.5 0.0000 0.0000
21:06 8.4 2.6 67 258 1.1 2.2 1024.5 0.0000 0.0000
21:16 7.9 1.9 66 25 0.3 1.1 1024.7 0.0000 0.0000
21:26 7.4 1.7 67 343 0.3 1.4 1024.6 0.0000 0.0000
21:36 7 1.5 68 335 1.1 2.5 1024.6 0.0000 0.0000
21:47 6.6 1.3 69 324 1.4 2.2 1024.7 0.0000 0.0000
21:56 6.3 1.2 70 325 1.4 2.5 1024.6 0.0000 0.0000
22:06 6.2 1.3 71 332 1.4 3.3 1024.7 0.0000 0.0000
22:17 5.9 1.1 71 77 0.8 2.2 1024.8 0.0000 0.0000
22:27 5.6 0.8 71 3 0.3 1.4 1024.7 0.0000 0.0000
22:37 5.3 0.5 71 106 0.8 1.9 1024.7 0.0000 0.0000
22:46 5 0.4 72 325 0.8 1.1 1024.8 0.0000 0.0000
22:57 4.7 0.1 72 15 0.8 1.1 1024.6 0.0000 0.0000
23:07 4.5 0.1 73 16 0.3 1.1 1024.8 0.0000 0.0000
23:17 4.3 -0.1 73 13 0.3 1.1 1024.7 0.0000 0.0000
23:27 4.2 0 74 356 0.3 1.1 1024.9 0.0000 0.0000
23:37 4.3 0.3 75 10 0.3 1.1 1024.7 0.0000 0.0000
23:47 4.3 0.4 76 45 0.8 1.9 1024.6 0.0000 0.0000
23:57 4.2 0.4 76 26 0.3 1.4 1024.6 0.0000

DAY STATISTIC

2024-04-23
TEMPERATURE
AVERAGE
7.7
HIGH
13.0
14:07
LOW
1.7
06:08
PRESSURE
AVERAGE
1027.0
HIGH
1029.8
00:06
LOW
1024.0
18:55
DEWPOINT
AVERAGE
2.5
HIGH
5.9
09:40
LOW
-0.5
06:08
HUMIDITY
AVERAGE
71
HIGH
87
07:28
LOW
57
13:27
WIND SPEED
AVERAGE
1.4
HIGH
3.6
14:33
WIND GUST
AVERAGE
3.5
HIGH
11.7
16:04
WIND DIRECTION
PREVAILING
NW
56.6%
N
11.2
NE
2.8
E
6.3
SE
4.9
S
0.7
SW
0.7
W
16.8
NW
56.6
PRECIPITATION
RAIN HOUR
0.0
RAIN DAY
0.0
TEMPERATURE (°C)
LOW
1.7
HIGH
13.0
AVERAGE
7.7
PRESSURE (hpa)
LOW
1024.0
HIGH
1029.8
AVERAGE
1027.0
DEVICE